NCAR-RAP Real-Time Weather Data

Output produced by METARs form (12 May 2021  11:50 UTC)
found at http://weather.rap.ucar.edu/surface/
 
KWAL 121054Z AUTO 34007KT 10SM FEW090 11/M02 A3024 RMK AO2 SLP235 T01061017
KWAL 120954Z AUTO 34005KT 10SM OVC080 12/00 A3021 RMK AO2 SLP226 T01170000
KWAL 120854Z AUTO 34009KT 10SM BKN075 BKN100 12/01 A3021 RMK AO2 SLP225 60000 T01220006 53013
KWAL 120754Z AUTO 34004KT 10SM OVC070 12/06 A3018 RMK AO2 SLP217 T01220056
KWAL 120654Z AUTO 34006KT 10SM OVC065 13/08 A3017 RMK AO2 RAB38E51 SLP212 P0000 T01280078
KWAL 120554Z AUTO 00000KT 10SM OVC055 13/11 A3017 RMK AO2 RAE11 SLP212 P0001 60005 T01280111 10150 20128 51016
KWAL 120454Z AUTO 00000KT 6SM RA BR BKN047 OVC055 13/11 A3017 RMK AO2 RAB05 SLP212 P0004 T01330111 402060083
KWAL 120354Z AUTO 26003KT 10SM OVC060 14/10 A3015 RMK AO2 SLP207 T01440100
KWAL 120254Z AUTO 20004KT 10SM OVC070 15/09 A3012 RMK AO2 SLP196 T01500089 53012
KWAL 120154Z AUTO 18006KT 10SM OVC075 14/10 A3010 RMK AO2 SLP190 T01440100
KWAL 120054Z AUTO 20006KT 10SM OVC095 14/10 A3010 RMK AO2 SLP188 T01440100
KWAL 112354Z AUTO 19007KT 10SM FEW095 14/08 A3008 RMK AO2 SLP184 T01440083 10206 20144 55001
KWAL 112254Z AUTO 19011KT 10SM CLR 16/08 A3008 RMK AO2 SLP183 T01610078
KWAL 112154Z AUTO 18015KT 10SM CLR 18/06 A3009 RMK AO2 SLP184 T01780056
KWAL 112054Z AUTO 28005KT 10SM CLR 20/03 A3009 RMK AO2 SLP185 T02000028 56008
KWAL 111954Z 28008KT 240V310 10SM CLR 20/03 A3009 RMK AO2 SLP185 T02000033 $